Time;durP1;ratioP1;P1;durP2;ratioP2;P2;SDS_P1;SDS_P2;PMS_P1;PMS_P2;Temp;Humidity;BMP_temperature;BMP_pressure;BME280_temperature;BME280_humidity;BME280_pressure;Samples;Min_cycle;Max_cycle;Signal;HPM_P1;HPM_P2
2022/07/02 00:01:55;;;;;;;3.20;2.37;;;;;;;;;;5130458;27;20456;-70
2022/07/02 00:04:24;;;;;;;3.20;2.00;;;;;;;;;;5131325;27;20966;-68
2022/07/02 00:06:52;;;;;;;3.10;1.90;;;;;;;;;;5126287;27;20490;-68
2022/07/02 00:09:19;;;;;;;3.73;2.33;;;;;;;;;;5131755;27;20773;-68
2022/07/02 00:11:46;;;;;;;5.77;1.80;;;;;;;;;;5140746;27;20964;-69
2022/07/02 00:14:14;;;;;;;3.47;2.30;;;;;;;;;;5129928;27;20453;-69
2022/07/02 00:16:41;;;;;;;3.80;1.93;;;;;;;;;;5130677;27;20543;-68
2022/07/02 00:19:09;;;;;;;3.20;1.97;;;;;;;;;;5130779;27;20805;-69
2022/07/02 00:21:39;;;;;;;3.43;1.90;;;;;;;;;;5131278;27;20459;-69
2022/07/02 00:24:07;;;;;;;3.73;2.30;;;;;;;;;;5129770;27;20442;-69
2022/07/02 00:26:35;;;;;;;3.70;1.73;;;;;;;;;;5130399;27;20532;-67
2022/07/02 00:29:03;;;;;;;3.07;1.87;;;;;;;;;;5130298;27;20451;-68
2022/07/02 00:31:30;;;;;;;2.47;1.50;;;;;;;;;;5130805;27;20542;-68
2022/07/02 00:33:58;;;;;;;3.07;1.80;;;;;;;;;;5129585;27;20479;-68
2022/07/02 00:36:27;;;;;;;2.73;1.50;;;;;;;;;;5129987;27;20443;-69
2022/07/02 00:38:54;;;;;;;3.30;1.80;;;;;;;;;;5130345;27;20450;-67
2022/07/02 00:41:22;;;;;;;2.93;1.73;;;;;;;;;;5130965;27;20550;-70
2022/07/02 00:43:50;;;;;;;5.33;1.60;;;;;;;;;;5130809;27;20447;-68
2022/07/02 00:46:17;;;;;;;3.10;1.63;;;;;;;;;;5129335;27;20554;-69
2022/07/02 00:48:44;;;;;;;3.57;2.10;;;;;;;;;;5129741;27;20949;-69
2022/07/02 00:51:11;;;;;;;2.50;1.27;;;;;;;;;;5130032;27;20948;-67
2022/07/02 00:53:40;;;;;;;5.13;1.63;;;;;;;;;;5130663;27;20458;-68
2022/07/02 00:56:07;;;;;;;3.23;1.97;;;;;;;;;;5127623;27;20469;-68
2022/07/02 00:58:34;;;;;;;2.60;1.50;;;;;;;;;;5130594;27;20798;-68
2022/07/02 01:01:02;;;;;;;2.60;1.60;;;;;;;;;;5129216;27;20450;-67
2022/07/02 01:03:30;;;;;;;2.53;1.40;;;;;;;;;;5129917;27;20468;-68
2022/07/02 01:05:58;;;;;;;2.70;1.43;;;;;;;;;;5129337;27;20477;-69
2022/07/02 01:11:13;;;;;;;2.50;1.67;;;;;;;;;;5129046;27;20465;-70
2022/07/02 01:13:40;;;;;;;2.67;1.47;;;;;;;;;;5130218;27;20453;-68
2022/07/02 01:16:07;;;;;;;2.27;1.60;;;;;;;;;;5128784;27;21020;-69
2022/07/02 01:18:35;;;;;;;2.93;1.73;;;;;;;;;;5123665;27;20791;-68
2022/07/02 01:21:02;;;;;;;3.27;1.70;;;;;;;;;;5130956;27;20938;-68
2022/07/02 01:23:31;;;;;;;2.70;1.60;;;;;;;;;;5132242;27;20950;-68
2022/07/02 01:25:58;;;;;;;3.10;1.50;;;;;;;;;;5131529;27;20839;-68
2022/07/02 01:28:25;;;;;;;2.63;1.50;;;;;;;;;;5132621;27;20542;-68
2022/07/02 01:30:53;;;;;;;2.10;1.30;;;;;;;;;;5132182;27;20454;-69
2022/07/02 01:33:20;;;;;;;2.10;1.17;;;;;;;;;;5132280;27;20474;-68
2022/07/02 01:35:47;;;;;;;3.13;1.80;;;;;;;;;;5131738;27;20805;-69
2022/07/02 01:38:14;;;;;;;2.23;1.30;;;;;;;;;;5131657;27;20447;-68
2022/07/02 01:40:43;;;;;;;2.00;1.43;;;;;;;;;;5132258;27;20446;-69
2022/07/02 01:43:10;;;;;;;2.77;2.00;;;;;;;;;;5131267;27;20478;-68
2022/07/02 01:45:37;;;;;;;2.93;1.73;;;;;;;;;;5118183;27;20803;-69
2022/07/02 01:48:05;;;;;;;2.13;1.60;;;;;;;;;;5131291;27;20443;-70
2022/07/02 01:50:35;;;;;;;1.87;1.27;;;;;;;;;;5131760;27;20462;-68
2022/07/02 01:53:02;;;;;;;2.20;1.60;;;;;;;;;;5130994;27;20455;-68
2022/07/02 01:55:29;;;;;;;3.67;1.70;;;;;;;;;;5131309;27;20446;-68
2022/07/02 01:57:58;;;;;;;1.97;1.50;;;;;;;;;;5131468;27;20451;-68
2022/07/02 02:00:25;;;;;;;2.13;1.50;;;;;;;;;;5131851;27;20442;-68
2022/07/02 02:02:53;;;;;;;2.17;1.27;;;;;;;;;;5131175;27;20451;-68
2022/07/02 02:05:20;;;;;;;1.60;1.03;;;;;;;;;;5131423;27;20455;-68
2022/07/02 02:07:47;;;;;;;1.37;1.03;;;;;;;;;;5131330;27;20484;-69
2022/07/02 02:10:14;;;;;;;5.33;1.50;;;;;;;;;;5131377;27;20443;-69
2022/07/02 02:12:41;;;;;;;3.33;1.53;;;;;;;;;;5131573;27;20826;-68
2022/07/02 02:15:11;;;;;;;1.67;1.27;;;;;;;;;;5130655;27;20451;-68
2022/07/02 02:17:38;;;;;;;2.00;1.50;;;;;;;;;;5131053;27;20476;-69
2022/07/02 02:20:05;;;;;;;1.70;1.47;;;;;;;;;;5130811;28;20809;-68
2022/07/02 02:22:32;;;;;;;1.90;1.40;;;;;;;;;;5131558;28;20868;-68
2022/07/02 02:25:00;;;;;;;2.93;1.67;;;;;;;;;;5130975;28;20443;-68
2022/07/02 02:27:27;;;;;;;1.97;1.20;;;;;;;;;;5131255;28;20482;-68
2022/07/02 02:29:54;;;;;;;1.80;1.43;;;;;;;;;;5130666;28;20495;-71
2022/07/02 02:32:22;;;;;;;2.20;1.67;;;;;;;;;;5131266;28;20481;-68
2022/07/02 02:34:49;;;;;;;1.93;1.63;;;;;;;;;;5131552;28;20442;-68
2022/07/02 02:37:17;;;;;;;1.87;1.30;;;;;;;;;;5130872;28;20469;-68
2022/07/02 02:39:44;;;;;;;3.03;1.43;;;;;;;;;;5131346;28;20445;-68
2022/07/02 02:42:11;;;;;;;2.00;1.13;;;;;;;;;;5131294;28;20454;-68
2022/07/02 02:44:38;;;;;;;2.20;1.47;;;;;;;;;;5131308;28;20446;-68
2022/07/02 02:47:06;;;;;;;3.13;1.40;;;;;;;;;;5130453;28;20478;-68
2022/07/02 02:49:34;;;;;;;1.70;1.20;;;;;;;;;;5131478;28;20445;-68
2022/07/02 02:52:01;;;;;;;1.93;1.30;;;;;;;;;;5131131;28;20457;-68
2022/07/02 02:54:28;;;;;;;1.60;1.03;;;;;;;;;;5131920;28;20550;-68
2022/07/02 02:56:55;;;;;;;2.20;1.77;;;;;;;;;;5130057;28;20458;-68
2022/07/02 02:59:23;;;;;;;2.27;2.00;;;;;;;;;;5131620;28;20448;-68
2022/07/02 03:01:50;;;;;;;2.63;1.53;;;;;;;;;;5130974;28;20458;-68
2022/07/02 03:04:17;;;;;;;1.93;1.60;;;;;;;;;;5130348;28;20464;-68
2022/07/02 03:06:45;;;;;;;2.13;1.63;;;;;;;;;;5130511;28;20540;-68
2022/07/02 03:09:12;;;;;;;2.43;1.30;;;;;;;;;;5132041;27;20536;-70
2022/07/02 03:11:39;;;;;;;1.33;1.07;;;;;;;;;;5137734;27;20501;-68
2022/07/02 03:14:07;;;;;;;3.00;1.50;;;;;;;;;;5134313;27;20453;-67
2022/07/02 03:16:34;;;;;;;2.00;1.40;;;;;;;;;;5134367;27;20457;-68
2022/07/02 03:19:01;;;;;;;2.53;1.60;;;;;;;;;;5134138;27;20454;-69
2022/07/02 03:21:28;;;;;;;2.60;1.47;;;;;;;;;;5134808;27;20458;-68
2022/07/02 03:23:56;;;;;;;2.60;1.70;;;;;;;;;;5134148;27;20501;-68
2022/07/02 03:26:23;;;;;;;2.70;1.70;;;;;;;;;;5134777;27;20474;-69
2022/07/02 03:28:51;;;;;;;2.43;1.30;;;;;;;;;;5134503;27;20457;-68
2022/07/02 03:31:18;;;;;;;3.57;1.73;;;;;;;;;;5134068;27;20533;-68
2022/07/02 03:33:45;;;;;;;2.93;1.93;;;;;;;;;;5134260;27;20487;-67
2022/07/02 03:36:12;;;;;;;3.90;2.07;;;;;;;;;;5133606;27;20757;-69
2022/07/02 03:38:39;;;;;;;2.03;1.60;;;;;;;;;;5134683;27;20445;-67
2022/07/02 03:41:08;;;;;;;1.87;1.40;;;;;;;;;;5134046;27;20799;-68
2022/07/02 03:43:36;;;;;;;2.20;1.50;;;;;;;;;;5134501;27;20474;-68
2022/07/02 03:46:03;;;;;;;1.67;1.27;;;;;;;;;;5133356;27;20503;-68
2022/07/02 03:48:30;;;;;;;2.23;1.50;;;;;;;;;;5134223;27;20568;-68
2022/07/02 03:50:57;;;;;;;2.90;1.73;;;;;;;;;;5134047;27;20541;-68
2022/07/02 03:53:24;;;;;;;2.10;1.43;;;;;;;;;;5133841;27;20453;-68
2022/07/02 03:55:52;;;;;;;2.20;1.50;;;;;;;;;;5133821;27;20450;-68
2022/07/02 03:58:21;;;;;;;1.97;1.77;;;;;;;;;;5134371;27;20811;-68
2022/07/02 04:00:48;;;;;;;2.30;1.63;;;;;;;;;;5133841;27;20449;-67
2022/07/02 04:03:15;;;;;;;1.60;1.23;;;;;;;;;;5133694;27;20456;-68
2022/07/02 04:05:42;;;;;;;2.27;1.87;;;;;;;;;;5133578;27;20562;-70
2022/07/02 04:08:09;;;;;;;2.13;1.90;;;;;;;;;;5132865;27;20473;-68
2022/07/02 04:10:37;;;;;;;1.70;1.20;;;;;;;;;;5134309;27;20533;-69
2022/07/02 04:13:04;;;;;;;1.37;1.20;;;;;;;;;;5145582;27;20457;-67
2022/07/02 04:15:32;;;;;;;2.30;2.10;;;;;;;;;;5133572;27;20454;-68
2022/07/02 04:17:59;;;;;;;2.17;1.60;;;;;;;;;;5132733;27;20465;-69
2022/07/02 04:20:27;;;;;;;2.23;1.50;;;;;;;;;;5132742;27;20445;-69
2022/07/02 04:22:54;;;;;;;2.80;2.13;;;;;;;;;;5132578;27;20453;-71
2022/07/02 04:25:21;;;;;;;2.27;1.67;;;;;;;;;;5132762;27;20476;-69
2022/07/02 04:27:48;;;;;;;1.33;1.00;;;;;;;;;;5128509;27;20477;-68
2022/07/02 04:30:16;;;;;;;1.70;1.40;;;;;;;;;;5132478;27;20444;-69
2022/07/02 04:32:44;;;;;;;3.03;1.80;;;;;;;;;;5137421;27;20480;-68
2022/07/02 04:35:11;;;;;;;3.43;1.70;;;;;;;;;;5132005;27;20546;-68
2022/07/02 04:37:38;;;;;;;2.07;1.60;;;;;;;;;;5133780;27;20850;-68
2022/07/02 04:40:07;;;;;;;2.30;1.63;;;;;;;;;;5132396;27;20923;-68
2022/07/02 04:42:35;;;;;;;2.30;1.37;;;;;;;;;;5133753;27;20452;-68
2022/07/02 04:45:02;;;;;;;3.00;2.37;;;;;;;;;;5132179;27;20452;-68
2022/07/02 04:47:29;;;;;;;4.10;1.77;;;;;;;;;;5133008;27;20571;-68
2022/07/02 04:49:58;;;;;;;1.40;1.23;;;;;;;;;;5132387;27;20450;-69
2022/07/02 04:52:25;;;;;;;2.37;1.50;;;;;;;;;;5132612;27;20454;-68
2022/07/02 04:54:52;;;;;;;1.93;1.73;;;;;;;;;;5132611;27;20447;-69
2022/07/02 04:57:19;;;;;;;2.33;1.70;;;;;;;;;;5133209;27;20451;-70
2022/07/02 04:59:46;;;;;;;2.17;1.80;;;;;;;;;;5132355;27;20454;-68
2022/07/02 05:02:13;;;;;;;2.63;1.83;;;;;;;;;;5131893;27;20980;-69
2022/07/02 05:04:41;;;;;;;4.07;1.90;;;;;;;;;;5132237;27;20470;-68
2022/07/02 05:07:09;;;;;;;2.33;2.13;;;;;;;;;;5132259;27;20474;-69
2022/07/02 05:09:36;;;;;;;3.10;2.20;;;;;;;;;;5132563;27;20442;-68
2022/07/02 05:12:04;;;;;;;2.03;1.80;;;;;;;;;;5141578;27;20458;-68
2022/07/02 05:14:31;;;;;;;2.63;2.30;;;15.90;99.90;;;;;;5132995;27;20447;-70
2022/07/02 05:16:57;;;;;;;3.63;2.13;;;14.60;99.90;;;;;;5122309;27;20447;-69
2022/07/02 05:19:24;;;;;;;2.37;1.73;;;14.60;99.90;;;;;;5132584;27;20445;-69
2022/07/02 05:21:51;;;;;;;2.20;1.97;;;14.80;99.90;;;;;;5132666;27;20446;-69
2022/07/02 05:24:20;;;;;;;3.60;2.10;;;14.80;99.90;;;;;;5130738;27;20516;-69
2022/07/02 05:26:46;;;;;;;3.47;1.90;;;14.80;99.90;;;;;;5131783;27;20450;-70
2022/07/02 05:29:13;;;;;;;2.73;2.17;;;14.90;99.90;;;;;;5131472;27;20592;-68
2022/07/02 05:31:40;;;;;;;2.57;2.00;;;15.00;99.90;;;;;;5131886;27;20481;-69
2022/07/02 05:34:07;;;;;;;2.20;1.80;;;15.10;99.90;;;;;;5131887;27;20477;-68
2022/07/02 05:36:34;;;;;;;2.67;1.63;;;15.20;99.90;;;;;;5131911;27;20446;-68
2022/07/02 05:39:00;;;;;;;2.17;1.70;;;15.20;99.90;;;;;;5131983;27;20466;-68
2022/07/02 05:41:29;;;;;;;1.50;1.37;;;15.40;99.90;;;;;;5131754;27;20449;-68
2022/07/02 05:43:56;;;;;;;2.73;2.07;;;15.40;99.90;;;;;;5131669;27;20546;-69
2022/07/02 05:46:23;;;;;;;2.17;1.53;;;15.50;99.90;;;;;;5131658;27;20457;-68
2022/07/02 05:48:49;;;;;;;2.10;1.67;;;15.60;99.90;;;;;;5132306;27;20475;-68
2022/07/02 05:51:17;;;;;;;2.50;1.80;;;;;;;;;;5131716;27;20460;-68
2022/07/02 05:53:44;;;;;;;2.60;1.53;;;;;;;;;;5131692;27;21267;-68
2022/07/02 05:56:11;;;;;;;2.03;1.30;;;;;;;;;;5131188;27;20447;-68
2022/07/02 05:58:39;;;;;;;3.10;1.33;;;;;;;;;;5130872;27;20533;-68
2022/07/02 06:01:07;;;;;;;1.83;1.40;;;;;;;;;;5130933;27;20447;-69
2022/07/02 06:03:34;;;;;;;1.67;1.10;;;;;;;;;;5131987;27;20831;-68
2022/07/02 06:08:46;;;;;;;1.80;1.20;;;;;;;;;;5131722;27;20974;-67
2022/07/02 06:11:13;;;;;;;2.63;1.40;;;;;;;;;;5131078;27;21017;-68
2022/07/02 06:13:41;;;;;;;2.10;1.17;;;;;;;;;;5132176;27;20447;-68
2022/07/02 06:16:09;;;;;;;2.27;1.20;;;;;;;;;;5130548;27;20503;-68
2022/07/02 06:18:36;;;;;;;2.37;1.10;;;;;;;;;;5131667;27;20477;-68
2022/07/02 06:21:03;;;;;;;2.70;1.40;;;;;;;;;;5131436;28;20458;-67
2022/07/02 06:23:30;;;;;;;2.30;1.13;;;;;;;;;;5131750;28;20449;-68
2022/07/02 06:25:57;;;;;;;2.60;1.07;;;;;;;;;;5130492;28;20446;-67
2022/07/02 06:28:24;;;;;;;2.50;1.13;;;;;;;;;;5131506;28;20475;-69
2022/07/02 06:30:53;;;;;;;4.83;1.40;;;;;;;;;;5131726;28;20449;-68
2022/07/02 06:33:20;;;;;;;2.17;0.90;;;;;;;;;;5131087;28;20483;-68
2022/07/02 06:35:47;;;;;;;2.77;1.30;;;;;;;;;;5131256;28;20443;-69
2022/07/02 06:38:14;;;;;;;2.30;0.80;;;;;;;;;;5130842;28;20454;-68
2022/07/02 06:40:41;;;;;;;2.60;1.00;;;;;;;;;;5131146;28;20454;-69
2022/07/02 06:43:08;;;;;;;2.60;0.90;;;;;;;;;;5130932;27;20455;-69
2022/07/02 06:45:35;;;;;;;4.93;1.40;;;;;;;;;;5134760;27;20489;-68
2022/07/02 06:48:03;;;;;;;2.93;0.80;;;;;;;;;;5135038;27;20477;-68
2022/07/02 06:50:31;;;;;;;3.20;0.90;;;;;;;;;;5136568;27;20449;-68
2022/07/02 06:52:58;;;;;;;3.67;0.90;;;;;;;;;;5136266;27;20805;-68
2022/07/02 06:55:25;;;;;;;3.83;0.93;;;;;;;;;;5136185;27;20442;-68
2022/07/02 06:57:52;;;;;;;3.80;1.00;;;;;;;;;;5135686;27;20447;-68
2022/07/02 07:00:21;;;;;;;3.90;0.90;;;;;;;;;;5135360;27;20438;-68
2022/07/02 07:02:48;;;;;;;3.80;0.87;;;;;;;;;;5135301;27;20455;-68
2022/07/02 07:05:17;;;;;;;3.97;0.90;;;;;;;;;;5134283;27;20438;-68
2022/07/02 07:07:44;;;;;;;3.93;0.97;;;;;;;;;;5134713;27;20482;-68
2022/07/02 07:10:11;;;;;;;4.00;0.90;;;;;;;;;;5134971;27;20445;-68
2022/07/02 07:12:38;;;;;;;4.10;1.00;;;;;;;;;;5139973;27;20473;-69
2022/07/02 07:15:07;;;;;;;4.00;1.00;;;;;;;;;;5134074;27;20443;-69
2022/07/02 07:17:35;;;;;;;3.77;0.90;;;;;;;;;;5135017;27;20491;-69
2022/07/02 07:20:02;;;;;;;4.13;1.20;;;;;;;;;;5134441;27;20447;-69
2022/07/02 07:22:30;;;;;;;4.27;1.17;;;;;;;;;;5134262;27;20581;-69
2022/07/02 07:24:57;;;;;;;3.50;0.77;;;;;;;;;;5134065;27;20884;-69
2022/07/02 07:27:24;;;;;;;3.40;1.03;;;;;;;;;;5134506;27;20941;-69
2022/07/02 07:29:52;;;;;;;3.70;0.90;;;;;;;;;;5135125;27;20462;-69
2022/07/02 07:32:19;;;;;;;3.90;0.90;;;;;;;;;;5133816;27;20466;-69
2022/07/02 07:34:46;;;;;;;3.70;0.97;;;;;;;;;;5134143;27;20447;-69
2022/07/02 07:37:14;;;;;;;3.43;0.80;;;;;;;;;;5133787;27;20726;-69
2022/07/02 07:39:42;;;;;;;3.70;0.80;;;;;;;;;;5134359;27;20838;-69
2022/07/02 07:42:10;;;;;;;3.70;0.70;;;;;;;;;;5133971;27;20479;-69
2022/07/02 07:44:37;;;;;;;3.80;0.80;;;;;;;;;;5134298;27;20526;-69
2022/07/02 07:47:04;;;;;;;3.90;0.87;;;;;;;;;;5133270;27;20469;-69
2022/07/02 07:49:31;;;;;;;4.20;1.10;;;;;;;;;;5133861;27;20482;-69
2022/07/02 07:51:58;;;;;;;4.20;0.93;;;;;;;;;;5133812;27;20450;-68
2022/07/02 07:54:25;;;;;;;4.27;0.90;;;;;;;;;;5133458;27;20459;-69
2022/07/02 07:56:54;;;;;;;3.90;0.80;;;;;;;;;;5134537;27;20443;-69
2022/07/02 07:59:21;;;;;;;4.17;0.80;;;;;;;;;;5134165;27;20538;-69
2022/07/02 08:01:49;;;;;;;3.90;0.80;;;;;;;;;;5134026;27;20451;-69
2022/07/02 08:04:16;;;;;;;4.20;1.10;;;;;;;;;;5132880;27;20449;-71
2022/07/02 08:06:43;;;;;;;4.37;0.80;;;;;;;;;;5133418;27;20447;-69
2022/07/02 08:09:10;;;;;;;4.03;0.90;;;;;;;;;;5133018;27;20470;-69
2022/07/02 08:11:37;;;;;;;4.10;1.07;;;;;;;;;;5137119;27;20458;-68
2022/07/02 08:14:06;;;;;;;4.00;0.83;;;;;;;;;;5133434;27;20482;-68
2022/07/02 08:16:33;;;;;;;3.80;0.97;;;;;;;;;;5133127;27;20445;-69
2022/07/02 08:19:00;;;;;;;3.97;0.90;;;;;;;;;;5132964;27;20473;-68
2022/07/02 08:21:27;;;;;;;4.00;0.70;;;;;;;;;;5133286;27;20804;-68
2022/07/02 08:23:54;;;;;;;3.80;0.80;;;;;;;;;;5132971;27;20481;-69
2022/07/02 08:26:22;;;;;;;3.90;0.80;;;;;;;;;;5133640;27;20447;-68
2022/07/02 08:28:49;;;;;;;4.37;1.10;;;;;;;;;;5133642;27;20478;-68
2022/07/02 08:31:17;;;;;;;4.50;0.80;;;;;;;;;;5132349;27;20452;-69
2022/07/02 08:33:44;;;;;;;4.67;0.70;;;;;;;;;;5133896;27;20569;-68
2022/07/02 08:36:11;;;;;;;4.30;1.00;;;;;;;;;;5132507;27;20443;-68
2022/07/02 08:38:38;;;;;;;4.30;0.83;;;;;;;;;;5133306;27;20451;-69
2022/07/02 08:41:06;;;;;;;4.60;1.17;;;;;;;;;;5132419;27;20964;-68
2022/07/02 08:43:34;;;;;;;5.43;0.87;;;;;;;;;;5133300;27;20438;-68
2022/07/02 08:46:04;;;;;;;4.20;0.80;;;;;;;;;;5131723;27;20447;-68
2022/07/02 08:48:33;;;;;;;4.17;0.90;;;;;;;;;;5132295;27;20474;-69
2022/07/02 08:51:01;;;;;;;4.10;0.70;;;;;;;;;;5133292;27;20448;-68
2022/07/02 08:53:28;;;;;;;4.00;0.70;;;;;;;;;;5133212;27;20776;-68
2022/07/02 08:55:56;;;;;;;4.30;1.00;;;;;;;;;;5132224;27;20475;-68
2022/07/02 08:58:24;;;;;;;4.10;0.80;;;;;;;;;;5132524;27;20442;-69
2022/07/02 09:00:51;;;;;;;4.17;0.90;;;;;;;;;;5132016;27;20454;-67
2022/07/02 09:03:20;;;;;;;4.00;0.90;;;;;;;;;;5132215;27;20533;-68
2022/07/02 09:05:50;;;;;;;3.57;0.70;;;;;;;;;;5131999;27;20973;-69
2022/07/02 09:08:18;;;;;;;3.57;0.83;;;;;;;;;;5120219;27;20470;-68
2022/07/02 09:10:45;;;;;;;3.60;0.77;;;;;;;;;;5132367;27;20443;-70
2022/07/02 09:13:13;;;;;;;3.70;0.80;;;;;;;;;;5132126;27;20804;-70
2022/07/02 09:15:41;;;;;;;3.33;0.80;;;;;;;;;;5132443;27;20465;-70
2022/07/02 09:18:08;;;;;;;3.40;0.87;;;;;;;;;;5132166;27;20475;-72
2022/07/02 09:20:35;;;;;;;3.13;0.60;;;;;;;;;;5133008;27;20443;-70
2022/07/02 09:23:08;;;;;;;3.77;0.93;;;;;;;;;;5131555;27;20447;-69
2022/07/02 09:25:35;;;;;;;3.50;1.00;;;;;;;;;;5133889;27;20534;-69
2022/07/02 09:28:04;;;;;;;4.60;0.83;;;;;;;;;;5138335;27;20442;-69
2022/07/02 09:30:32;;;;;;;3.40;1.00;;;;;;;;;;5138144;27;20446;-69
2022/07/02 09:35:45;;;;;;;2.80;0.63;;;;;;;;;;5131209;27;20460;-69
2022/07/02 09:38:14;;;;;;;3.90;1.00;;;;;;;;;;5144088;27;20451;-70
2022/07/02 09:40:52;;;;;;;3.07;1.00;;;;;;;;;;5134800;27;21005;-69
2022/07/02 09:43:25;;;;;;;3.60;1.00;;;;;;;;;;5132427;27;20427;-71
2022/07/02 09:45:52;;;;;;;3.30;0.70;;;;;;;;;;5142943;27;20863;-69
2022/07/02 09:48:19;;;;;;;3.07;0.73;;;;;;;;;;5137357;27;20435;-70
2022/07/02 09:50:46;;;;;;;3.60;1.00;;;;;;;;;;5132339;27;20462;-70
2022/07/02 09:53:15;;;;;;;3.40;0.90;;;;;;;;;;5142210;27;20765;-69
2022/07/02 09:55:42;;;;;;;2.83;0.80;;;;;;;;;;5138938;27;20771;-71
2022/07/02 09:58:09;;;;;;;3.33;0.90;;;;;;;;;;5134801;27;20445;-71
2022/07/02 10:00:44;;;;;;;3.57;0.70;;;;;;;;;;5132005;27;20439;-70
2022/07/02 10:03:11;;;;;;;3.63;0.70;;;;;;;;;;5132335;27;20454;-70
2022/07/02 10:05:38;;;;;;;2.80;0.70;;;;;;;;;;5132125;27;20827;-70
2022/07/02 10:08:06;;;;;;;2.60;0.63;;;;;;;;;;5131638;27;20454;-70
2022/07/02 10:10:36;;;;;;;2.60;0.70;;;;;;;;;;5132037;27;20491;-70
2022/07/02 10:13:03;;;;;;;2.50;0.63;;;;;;;;;;5143189;27;20457;-70
2022/07/02 10:15:32;;;;;;;2.60;0.70;;;;;;;;;;5132133;27;20443;-70
2022/07/02 10:18:00;;;;;;;2.80;0.80;;;;;;;;;;5130709;27;20438;-70
2022/07/02 10:20:29;;;;;;;2.50;0.50;;;;;;;;;;5131537;27;20454;-70
2022/07/02 10:22:58;;;;;;;2.40;0.50;;;;;;;;;;5117380;28;20449;-71
2022/07/02 10:25:25;;;;;;;2.40;0.60;;;;;;;;;;5131555;28;20451;-70
2022/07/02 10:27:55;;;;;;;2.50;0.80;;;;;;;;;;5132198;28;20442;-70
2022/07/02 10:30:23;;;;;;;2.70;0.73;;;;;;;;;;5132049;28;20467;-70
2022/07/02 10:32:54;;;;;;;2.40;0.70;;;;;;;;;;5131198;28;20478;-70
2022/07/02 10:35:22;;;;;;;2.87;1.00;;;;;;;;;;5131820;28;20926;-70
2022/07/02 10:37:49;;;;;;;2.30;0.60;;;;;;;;;;5132076;28;20497;-70
2022/07/02 10:40:18;;;;;;;2.50;0.77;;;;;;;;;;5131211;28;20525;-70
2022/07/02 10:42:48;;;;;;;2.40;0.63;;;;;;;;;;5131460;28;20454;-70
2022/07/02 10:45:17;;;;;;;2.30;0.73;;;;;;;;;;5130948;28;20450;-70
2022/07/02 10:47:59;;;;;;;2.50;0.60;;;;;;;;;;5131475;28;20466;-70
2022/07/02 10:50:28;;;;;;;2.40;0.70;;;;;;;;;;5131616;28;20527;-68
2022/07/02 10:52:55;;;;;;;2.40;0.60;;;;;;;;;;5130533;28;20873;-69
2022/07/02 10:55:26;;;;;;;3.30;0.90;;;;;;;;;;5118018;28;20439;-69
2022/07/02 10:57:56;;;;;;;2.60;0.63;;;;;;;;;;5131921;28;20493;-69
2022/07/02 11:00:28;;;;;;;6.07;0.93;;;;;;;;;;5131711;28;20925;-69
2022/07/02 11:02:57;;;;;;;2.20;0.60;;;;;;;;;;5130516;28;20932;-69
2022/07/02 11:05:24;;;;;;;2.50;0.70;;;;;;;;;;5131403;28;20910;-69
2022/07/02 11:07:51;;;;;;;2.53;0.87;;;;;;;;;;5131325;28;20564;-69
2022/07/02 11:10:26;;;;;;;3.30;0.87;;;;;;;;;;5130822;28;20474;-68
2022/07/02 11:12:57;;;;;;;3.20;1.33;;;;;;;;;;5143113;27;20446;-72
2022/07/02 11:15:29;;;;;;;2.40;0.70;;;;;;;;;;5131499;28;20933;-69
2022/07/02 11:18:00;;;;;;;2.20;0.70;;;;;;;;;;5130872;28;20797;-68
2022/07/02 11:20:27;;;;;;;2.20;0.80;;;;;;;;;;5131348;28;20469;-68
2022/07/02 11:22:56;;;;;;;2.10;0.60;;;;;;;;;;5130487;28;20530;-69
2022/07/02 11:25:23;;;;;;;2.57;0.80;;;;;;;;;;5131743;28;20443;-69
2022/07/02 11:27:57;;;;;;;2.20;0.67;;;;;;;;;;5118212;28;20442;-69
2022/07/02 11:30:27;;;;;;;2.10;0.73;;;;;;;;;;5133075;27;20483;-70
2022/07/02 11:32:55;;;;;;;3.23;0.97;;;;;;;;;;5133895;27;20482;-70
2022/07/02 11:35:23;;;;;;;2.10;0.80;;;;;;;;;;5134914;27;20485;-69
2022/07/02 11:37:50;;;;;;;2.00;0.50;;;;;;;;;;5135258;27;20468;-69
2022/07/02 11:40:21;;;;;;;1.90;0.60;;;;;;;;;;5134113;27;20486;-69
2022/07/02 11:42:48;;;;;;;1.90;0.60;;;;;;;;;;5134577;27;20442;-70
2022/07/02 11:45:16;;;;;;;2.47;0.80;;;;;;;;;;5134354;27;20545;-70
2022/07/02 11:47:44;;;;;;;1.80;0.60;;;;;;;;;;5134528;27;20443;-70
2022/07/02 11:50:11;;;;;;;2.77;0.70;;;;;;;;;;5133750;27;20482;-70
2022/07/02 11:52:40;;;;;;;2.57;1.00;;;;;;;;;;5133570;27;20450;-70
2022/07/02 11:55:08;;;;;;;2.00;0.90;;;;;;;;;;5133474;27;20447;-72
2022/07/02 11:57:35;;;;;;;1.87;0.73;;;;;;;;;;5134368;27;20465;-72
2022/07/02 12:00:02;;;;;;;1.80;0.70;;;;;;;;;;5134068;27;20455;-71
2022/07/02 12:02:37;;;;;;;1.87;0.80;;;;;;;;;;5134088;27;20892;-72
2022/07/02 12:05:14;;;;;;;1.97;0.83;;;;;;;;;;5128813;27;20458;-70
2022/07/02 12:07:43;;;;;;;3.37;0.90;;;;;;;;;;5131765;27;20443;-69
2022/07/02 12:10:11;;;;;;;3.57;1.00;;;;;;;;;;5131122;27;21000;-69
2022/07/02 12:12:38;;;;;;;1.80;0.80;;;;;;;;;;5143441;27;20458;-70
2022/07/02 12:15:06;;;;;;;2.30;0.80;;;;;;;;;;5130998;27;20447;-69
2022/07/02 12:17:35;;;;;;;3.40;0.90;;;;;;;;;;5131197;27;20447;-70
2022/07/02 12:20:02;;;;;;;1.90;0.80;;;;;;;;;;5131080;27;20880;-70
2022/07/02 12:22:30;;;;;;;2.10;0.77;;;;;;;;;;5130324;27;20453;-72
2022/07/02 12:24:58;;;;;;;2.17;0.70;;;;;;;;;;5131064;27;20486;-69
2022/07/02 12:27:26;;;;;;;1.80;0.90;;;;;;;;;;5131630;27;20443;-69
2022/07/02 12:29:56;;;;;;;1.80;0.83;;;;;;;;;;5130635;27;20573;-68
2022/07/02 12:32:24;;;;;;;2.00;1.00;;;;;;;;;;5130522;27;20474;-69
2022/07/02 12:34:52;;;;;;;1.60;0.70;;;;;;;;;;5130961;27;20948;-69
2022/07/02 12:37:23;;;;;;;1.60;0.60;;;;;;;;;;5131083;27;20451;-71
2022/07/02 12:39:51;;;;;;;1.60;0.70;;;;;;;;;;5131478;27;20465;-68
2022/07/02 12:42:21;;;;;;;1.50;0.70;;;;;;;;;;5128660;27;20454;-70
2022/07/02 12:44:53;;;;;;;1.60;0.80;;;;;;;;;;5131311;27;20443;-71
2022/07/02 12:47:25;;;;;;;1.90;0.80;;;;;;;;;;5130253;27;20454;-68
2022/07/02 12:49:59;;;;;;;1.70;0.90;;;;;;;;;;5130829;27;20478;-69
2022/07/02 12:52:27;;;;;;;1.43;0.60;;;;;;;;;;5130113;27;20814;-71
2022/07/02 12:54:54;;;;;;;2.23;0.83;;;;;;;;;;5130497;27;20501;-72
2022/07/02 12:57:23;;;;;;;1.57;0.80;;;;;;;;;;5130857;27;20435;-70
2022/07/02 12:59:52;;;;;;;1.40;0.60;;;;;;;;;;5130878;27;20458;-70
2022/07/02 13:02:22;;;;;;;1.60;0.83;;;;;;;;;;5130388;27;20459;-70
2022/07/02 13:04:49;;;;;;;1.50;0.70;;;;;;;;;;5130164;27;20449;-70
2022/07/02 13:07:16;;;;;;;1.47;0.60;;;;;;;;;;5129990;27;20558;-70
2022/07/02 13:09:44;;;;;;;1.50;0.80;;;;;;;;;;5130335;27;20813;-70
2022/07/02 13:12:12;;;;;;;1.60;0.90;;;;;;;;;;5128115;27;20967;-70
2022/07/02 13:14:41;;;;;;;2.33;0.70;;;;;;;;;;5130287;27;20522;-70
2022/07/02 13:17:08;;;;;;;1.60;0.73;;;;;;;;;;5129118;27;20916;-70
2022/07/02 13:19:37;;;;;;;1.70;0.80;;;;;;;;;;5129383;27;20451;-70
2022/07/02 13:22:05;;;;;;;1.80;0.83;;;;;;;;;;5129903;27;20534;-70
2022/07/02 13:24:32;;;;;;;2.50;1.00;;;;;;;;;;5115266;27;20454;-71
2022/07/02 13:26:59;;;;;;;1.73;0.80;;;;;;;;;;5129935;27;20499;-70
2022/07/02 13:29:27;;;;;;;1.63;0.90;;;;;;;;;;5130211;27;20454;-70
2022/07/02 13:31:57;;;;;;;1.60;0.80;;;;;;;;;;5128951;27;20459;-73
2022/07/02 13:34:24;;;;;;;2.27;0.90;;;;;;;;;;5129583;27;20471;-70
2022/07/02 13:36:51;;;;;;;1.90;0.93;;;;;;;;;;5134775;27;20530;-71
2022/07/02 13:39:18;;;;;;;1.70;0.70;;;;;;;;;;5134802;27;20852;-72
2022/07/02 13:41:46;;;;;;;2.40;0.90;;;;;;;;;;5131926;27;20439;-73
2022/07/02 13:44:13;;;;;;;1.60;0.70;;;;;;;;;;5135612;27;20443;-73
2022/07/02 13:46:41;;;;;;;1.40;0.53;;;;;;;;;;5139874;27;20440;-73
2022/07/02 13:49:09;;;;;;;1.40;0.67;;;;;;;;;;5132778;27;20450;-76
2022/07/02 13:51:37;;;;;;;1.50;0.80;;;;;;;;;;5140002;27;20475;-71
2022/07/02 13:54:04;;;;;;;1.30;0.63;;;;;;;;;;5137009;27;20438;-71
2022/07/02 13:56:31;;;;;;;1.77;0.73;;;;;;;;;;5133933;27;20446;-72
2022/07/02 13:58:58;;;;;;;1.50;0.80;;;;;;;;;;5137648;27;20528;-75
2022/07/02 14:01:26;;;;;;;1.40;0.70;;;;;;;;;;5138183;27;20461;-73
2022/07/02 14:03:54;;;;;;;1.50;0.87;;;;;;;;;;5131405;27;20443;-75
2022/07/02 14:06:22;;;;;;;1.50;0.90;;;15.80;99.90;;;;;;5130456;27;20812;-72
2022/07/02 14:08:49;;;;;;;1.40;0.80;;;29.80;1.00;;;;;;5137588;27;20444;-71
2022/07/02 14:11:16;;;;;;;1.33;0.80;;;29.90;1.00;;;;;;5138531;27;20478;-72
2022/07/02 14:13:43;;;;;;;2.60;0.90;;;29.60;1.00;;;;;;5133348;27;20768;-71
2022/07/02 14:16:10;;;;;;;1.30;0.82;;;30.00;1.00;;;;;;5130194;27;20656;-71
2022/07/02 14:18:37;;;;;;;1.15;0.75;;;30.80;1.00;;;;;;5132803;27;20198;-70
2022/07/02 14:21:04;;;;;;;2.75;1.08;;;31.20;1.00;;;;;;5133719;27;20223;-71
2022/07/02 14:23:33;;;;;;;1.55;1.23;;;30.90;1.00;;;;;;5130368;27;20569;-72
2022/07/02 14:26:01;;;;;;;1.10;0.80;;;31.20;1.00;;;;;;5131299;27;20553;-72
2022/07/02 14:28:29;;;;;;;0.90;0.70;;;31.60;1.00;;;;;;5137142;27;20606;-70
2022/07/02 14:30:57;;;;;;;1.00;0.73;;;31.30;1.00;;;;;;5130659;27;20274;-72
2022/07/02 14:33:24;;;;;;;1.00;0.70;;;31.90;1.00;;;;;;5129207;28;20225;-74
2022/07/02 14:35:52;;;;;;;0.85;0.68;;;31.70;1.00;;;;;;5133304;27;20201;-72
2022/07/02 14:38:20;;;;;;;1.10;0.82;;;31.50;1.00;;;;;;5135261;27;20690;-72
2022/07/02 14:40:48;;;;;;;1.08;0.82;;;31.60;1.00;;;;;;5129780;28;20640;-73
2022/07/02 14:43:16;;;;;;;1.27;0.90;;;32.40;1.00;;;;;;5138968;27;20311;-71